createdAt,value
2022-10-15T00:02:25.917Z,99568.91
2022-10-15T00:04:53.355Z,99576.88
2022-10-15T00:07:22.448Z,99581.38
2022-10-15T00:09:50.171Z,99561.38
2022-10-15T00:12:17.638Z,99562.75
2022-10-15T00:14:45.135Z,99561.03
2022-10-15T00:17:12.605Z,99558.25
2022-10-15T00:19:40.053Z,99564.53
2022-10-15T00:22:07.531Z,99568.06
2022-10-15T00:24:37.183Z,99563.69
2022-10-15T00:27:04.785Z,99572.66
2022-10-15T00:29:32.229Z,99572.66
2022-10-15T00:32:00.179Z,99566.47
2022-10-15T00:34:27.632Z,99562.97
2022-10-15T00:36:55.106Z,99567.31
2022-10-15T00:39:22.538Z,99568.41
2022-10-15T00:41:51.309Z,99565.00
2022-10-15T00:44:54.152Z,99554.03
2022-10-15T00:47:25.221Z,99555.09
2022-10-15T00:49:59.645Z,99554.13
2022-10-15T00:52:28.401Z,99545.28
2022-10-15T00:54:57.790Z,99541.81
2022-10-15T00:57:27.120Z,99534.66
2022-10-15T00:59:57.350Z,99471.25
2022-10-15T01:02:25.062Z,99541.06
2022-10-15T01:04:53.465Z,99529.09
2022-10-15T01:07:20.895Z,99497.81
2022-10-15T01:09:48.391Z,99530.53
2022-10-15T01:12:21.030Z,99538.53
2022-10-15T01:14:52.458Z,99446.03
2022-10-15T01:17:21.835Z,99535.84
2022-10-15T01:20:06.013Z,99522.56
2022-10-15T01:22:38.370Z,99523.53
2022-10-15T01:25:12.499Z,99512.84
2022-10-15T01:27:40.137Z,99526.31
2022-10-15T01:30:27.396Z,99524.38
2022-10-15T01:33:08.374Z,99527.13
2022-10-15T01:35:42.016Z,99504.88
2022-10-15T01:38:11.947Z,99515.66
2022-10-15T01:40:41.186Z,99501.22
2022-10-15T01:43:10.559Z,99510.34
2022-10-15T01:45:41.366Z,99428.16
2022-10-15T01:48:10.040Z,99449.50
2022-10-15T01:50:38.804Z,99518.34
2022-10-15T01:53:06.309Z,99511.19
2022-10-15T01:55:33.792Z,99516.50
2022-10-15T01:58:01.313Z,99468.38
2022-10-15T02:00:28.782Z,99515.66
2022-10-15T02:03:01.508Z,99521.00
2022-10-15T02:05:33.227Z,99473.69
2022-10-15T02:08:03.743Z,99511.53
2022-10-15T02:10:32.548Z,99469.88
2022-10-15T02:13:05.522Z,99504.41
2022-10-15T02:15:35.977Z,99511.28
2022-10-15T02:18:06.301Z,99506.09
2022-10-15T02:20:36.464Z,99491.34
2022-10-15T02:23:05.217Z,99502.72
2022-10-15T02:25:33.203Z,99473.25
2022-10-15T02:28:00.655Z,99507.91
2022-10-15T02:30:28.093Z,99515.91
2022-10-15T02:32:56.922Z,99507.06
2022-10-15T02:35:25.859Z,99454.25
2022-10-15T02:37:54.477Z,99494.75
2022-10-15T02:40:22.681Z,99502.72
2022-10-15T02:42:50.397Z,99494.00
2022-10-15T02:45:17.855Z,99493.03
2022-10-15T02:47:45.324Z,99499.94
2022-10-15T02:50:12.816Z,99494.75
2022-10-15T02:52:41.614Z,99427.81
2022-10-15T02:55:09.892Z,99454.03
2022-10-15T02:57:37.371Z,99488.44
2022-10-15T03:00:05.469Z,99471.97
2022-10-15T03:02:33.013Z,99498.09
2022-10-15T03:05:00.450Z,99494.63
2022-10-15T03:07:27.886Z,99499.94
2022-10-15T03:09:56.636Z,99502.59
2022-10-15T03:12:25.849Z,99502.72
2022-10-15T03:14:53.286Z,99487.00
2022-10-15T03:17:20.791Z,99495.44
2022-10-15T03:19:48.363Z,99496.44
2022-10-15T03:22:15.837Z,99318.72
2022-10-15T03:24:43.266Z,99495.44
2022-10-15T03:27:12.061Z,99498.09
2022-10-15T03:29:39.535Z,99498.09
2022-10-15T03:32:07.270Z,99493.75
2022-10-15T03:34:34.730Z,99501.75
2022-10-15T03:37:02.194Z,99497.28
2022-10-15T03:39:29.649Z,99498.22
2022-10-15T03:41:57.121Z,99502.72
2022-10-15T03:44:25.907Z,99503.44
2022-10-15T03:46:53.514Z,99498.22
2022-10-15T03:49:20.958Z,99494.97
2022-10-15T03:51:48.390Z,99492.31
2022-10-15T03:54:15.890Z,99493.75
2022-10-15T03:56:43.314Z,99491.22
2022-10-15T03:59:10.757Z,99500.06
2022-10-15T04:01:39.512Z,99493.88
2022-10-15T04:04:06.949Z,99494.00
2022-10-15T04:06:34.958Z,99499.31
2022-10-15T04:09:02.398Z,99436.09
2022-10-15T04:11:29.821Z,99465.38
2022-10-15T04:13:57.275Z,99490.47
2022-10-15T04:16:24.712Z,99491.44
2022-10-15T04:18:53.479Z,99502.31
2022-10-15T04:21:21.427Z,99503.78
2022-10-15T04:23:48.876Z,99497.63
2022-10-15T04:26:16.294Z,99500.28
2022-10-15T04:28:43.815Z,99505.59
2022-10-15T04:31:11.433Z,99504.63
2022-10-15T04:33:38.861Z,99509.09
2022-10-15T04:36:09.246Z,99486.19
2022-10-15T04:38:36.752Z,99503.88
2022-10-15T04:41:05.344Z,99501.22
2022-10-15T04:43:32.832Z,99496.03
2022-10-15T04:46:00.356Z,99499.66
2022-10-15T04:48:28.680Z,99504.88
2022-10-15T04:50:56.252Z,99472.88
2022-10-15T04:53:25.032Z,99505.09
2022-10-15T04:55:52.462Z,99511.03
2022-10-15T04:58:19.955Z,99507.63
2022-10-15T05:00:47.400Z,99508.50
2022-10-15T05:03:14.859Z,99497.84
2022-10-15T05:05:42.302Z,99493.25
2022-10-15T05:08:09.739Z,99504.88
2022-10-15T05:10:38.476Z,99489.88
2022-10-15T05:13:06.298Z,99499.03
2022-10-15T05:15:33.714Z,99504.97
2022-10-15T05:18:01.156Z,99496.13
2022-10-15T05:20:28.591Z,99466.91
2022-10-15T05:22:56.033Z,99506.78
2022-10-15T05:25:23.453Z,99512.09
2022-10-15T05:27:52.221Z,99517.31
2022-10-15T05:30:19.644Z,99517.53
2022-10-15T05:32:47.108Z,99511.28
2022-10-15T05:35:14.628Z,99525.28
2022-10-15T05:37:42.166Z,99521.91
2022-10-15T05:40:10.630Z,99515.84
2022-10-15T05:42:38.086Z,99517.66
2022-10-15T05:45:08.331Z,99522.03
2022-10-15T05:47:35.781Z,99526.38
2022-10-15T05:50:05.192Z,99526.38
2022-10-15T05:52:35.558Z,99537.00
2022-10-15T05:55:03.004Z,99543.28
2022-10-15T05:57:30.429Z,99535.31
2022-10-15T05:59:58.008Z,99530.44
2022-10-15T06:02:27.132Z,99531.69
2022-10-15T06:04:55.018Z,99529.13
2022-10-15T06:07:22.740Z,99545.94
2022-10-15T06:09:50.521Z,99543.41
2022-10-15T06:12:17.980Z,99535.53
2022-10-15T06:14:45.437Z,99459.88
2022-10-15T06:17:12.872Z,99543.41
2022-10-15T06:19:41.661Z,99536.59
2022-10-15T06:22:09.171Z,99546.91
2022-10-15T06:24:36.632Z,99545.09
2022-10-15T06:27:04.111Z,99554.88
2022-10-15T06:29:31.551Z,99468.31
2022-10-15T06:31:58.995Z,99554.03
2022-10-15T06:34:26.430Z,99558.38
2022-10-15T06:36:55.191Z,99554.88
2022-10-15T06:39:22.638Z,99558.38
2022-10-15T06:41:50.087Z,99562.84
2022-10-15T06:44:17.514Z,99567.22
2022-10-15T06:46:44.957Z,99564.69
2022-10-15T06:49:12.408Z,99565.50
2022-10-15T06:51:39.910Z,99570.94
2022-10-15T06:54:08.697Z,99536.97
2022-10-15T06:56:36.162Z,99579.03
2022-10-15T06:59:03.610Z,99574.69
2022-10-15T07:01:31.041Z,99583.53
2022-10-15T07:03:58.476Z,99587.13
2022-10-15T07:06:26.333Z,99587.00
2022-10-15T07:08:53.757Z,99583.53
2022-10-15T07:11:22.538Z,99591.38
2022-10-15T07:13:50.014Z,99593.19
2022-10-15T07:16:17.455Z,99594.88
2022-10-15T07:18:44.893Z,99587.00
2022-10-15T07:21:12.352Z,99584.56
2022-10-15T07:23:39.931Z,99590.41
2022-10-15T07:26:07.384Z,99566.75
2022-10-15T07:28:36.263Z,99521.84
2022-10-15T07:31:03.969Z,99527.59
2022-10-15T07:33:31.528Z,99563.56
2022-10-15T07:35:58.970Z,99594.88
2022-10-15T07:38:26.419Z,99600.94
2022-10-15T07:40:53.861Z,99601.78
2022-10-15T07:43:21.324Z,99597.31
2022-10-15T07:45:50.454Z,99604.34
2022-10-15T07:48:17.904Z,99602.50
2022-10-15T07:50:45.362Z,99595.63
2022-10-15T07:53:12.803Z,99598.91
2022-10-15T07:55:40.262Z,99595.72
2022-10-15T07:58:08.406Z,99603.25
2022-10-15T08:00:35.904Z,99521.97
2022-10-15T08:03:04.780Z,99615.47
2022-10-15T08:05:32.444Z,99614.66
2022-10-15T08:07:59.886Z,99611.88
2022-10-15T08:10:27.419Z,99610.03
2022-10-15T08:12:54.946Z,99603.78
2022-10-15T08:15:22.408Z,99522.59
2022-10-15T08:17:49.870Z,99534.59
2022-10-15T08:20:19.073Z,99610.91
2022-10-15T08:22:46.613Z,99607.38
2022-10-15T08:25:14.045Z,99614.31
2022-10-15T08:27:41.465Z,99619.50
2022-10-15T08:30:10.277Z,99615.88
2022-10-15T08:32:37.716Z,99613.09
2022-10-15T08:35:05.431Z,99622.66
2022-10-15T08:37:34.194Z,99626.94
2022-10-15T08:40:01.628Z,99619.78
2022-10-15T08:42:32.173Z,99617.88
2022-10-15T08:45:00.179Z,99610.63
2022-10-15T08:47:30.524Z,99577.31
2022-10-15T08:49:58.730Z,99607.41
2022-10-15T08:52:26.684Z,99576.28
2022-10-15T08:54:55.728Z,99603.19
2022-10-15T08:57:30.615Z,99550.97
2022-10-15T09:00:01.888Z,99550.72
2022-10-15T09:02:31.933Z,99585.06
2022-10-15T09:05:01.751Z,99605.44
2022-10-15T09:07:34.225Z,99597.13
2022-10-15T09:10:11.483Z,99595.78
2022-10-15T09:12:43.611Z,99605.22
2022-10-15T09:15:12.463Z,99594.34
2022-10-15T09:17:39.940Z,99600.66
2022-10-15T09:20:08.015Z,99602.84
2022-10-15T09:22:35.962Z,99527.13
2022-10-15T09:25:14.507Z,99595.38
2022-10-15T09:27:42.594Z,99580.75
2022-10-15T09:30:19.199Z,99581.38
2022-10-15T09:32:50.581Z,99583.78
2022-10-15T09:35:21.749Z,99575.06
2022-10-15T09:37:51.573Z,99582.09
2022-10-15T09:40:29.006Z,99585.25
2022-10-15T09:42:56.820Z,99589.38
2022-10-15T09:45:25.009Z,99586.34
2022-10-15T09:47:52.593Z,99477.81
2022-10-15T09:50:20.268Z,99588.66
2022-10-15T09:52:55.700Z,99586.59
2022-10-15T09:55:34.262Z,99588.06
2022-10-15T09:58:04.389Z,99577.28
2022-10-15T10:00:46.556Z,99586.00
2022-10-15T10:03:15.842Z,99590.94
2022-10-15T10:05:43.301Z,99588.16
2022-10-15T10:08:11.305Z,99591.31
2022-10-15T10:10:42.985Z,99574.09
2022-10-15T10:13:23.566Z,99578.22
2022-10-15T10:15:54.669Z,99578.22
2022-10-15T10:18:25.607Z,99517.19
2022-10-15T10:20:54.499Z,99576.88
2022-10-15T10:23:23.222Z,99538.16
2022-10-15T10:25:52.316Z,99575.41
2022-10-15T10:28:20.839Z,99576.25
2022-10-15T10:31:03.206Z,99557.47
2022-10-15T10:33:31.458Z,99582.91
2022-10-15T10:35:58.962Z,99581.09
2022-10-15T10:38:27.629Z,99579.09
2022-10-15T10:40:57.993Z,99573.97
2022-10-15T10:43:26.966Z,99577.13
2022-10-15T10:45:56.072Z,99573.34
2022-10-15T10:48:24.896Z,99597.75
2022-10-15T10:51:03.258Z,99563.91
2022-10-15T10:53:30.713Z,99597.75
2022-10-15T10:55:59.594Z,99579.41
2022-10-15T10:58:29.027Z,99594.56
2022-10-15T11:00:56.525Z,99582.22
2022-10-15T11:03:32.216Z,99582.91
2022-10-15T11:06:04.178Z,99549.13
2022-10-15T11:08:34.184Z,99537.03
2022-10-15T11:11:06.112Z,99580.13
2022-10-15T11:13:40.709Z,99542.47
2022-10-15T11:16:09.456Z,99513.16
2022-10-15T11:18:57.721Z,99560.53
2022-10-15T11:21:29.539Z,99557.88
2022-10-15T11:24:16.005Z,99536.53
2022-10-15T11:27:10.462Z,99529.13
2022-10-15T11:29:41.215Z,99506.38
2022-10-15T11:32:15.062Z,99535.56
2022-10-15T11:34:50.270Z,99497.16
2022-10-15T11:37:25.389Z,99543.19
2022-10-15T11:40:03.155Z,99544.63
2022-10-15T11:42:34.944Z,99489.88
2022-10-15T11:45:17.501Z,99530.66
2022-10-15T11:47:48.906Z,99535.03
2022-10-15T11:50:28.104Z,99516.50
2022-10-15T11:53:09.829Z,99474.00
2022-10-15T11:55:39.117Z,99533.56
2022-10-15T11:58:12.402Z,99523.88
2022-10-15T12:00:41.023Z,99497.25
2022-10-15T12:03:13.047Z,99511.53
2022-10-15T12:05:42.572Z,99455.13
2022-10-15T12:08:10.383Z,99509.81
2022-10-15T12:10:47.182Z,99510.81
2022-10-15T12:13:17.701Z,99501.94
2022-10-15T12:15:48.421Z,99464.53
2022-10-15T12:18:20.317Z,99495.06
2022-10-15T12:20:47.779Z,99495.78
2022-10-15T12:23:25.869Z,99425.19
2022-10-15T12:25:53.353Z,99475.22
2022-10-15T12:28:23.712Z,99483.66
2022-10-15T12:30:55.793Z,99477.94
2022-10-15T12:33:25.787Z,99427.59
2022-10-15T12:35:54.803Z,99419.25
2022-10-15T12:38:28.239Z,99480.09
2022-10-15T12:41:00.999Z,99416.31
2022-10-15T12:43:30.195Z,99478.03
2022-10-15T12:45:58.445Z,99477.16
2022-10-15T12:48:31.194Z,99445.97
2022-10-15T12:51:37.545Z,99479.72
2022-10-15T12:54:40.710Z,99469.31
2022-10-15T12:57:45.506Z,99472.94
2022-10-15T13:00:34.568Z,99450.81
2022-10-15T13:03:26.145Z,99415.00
2022-10-15T13:05:55.134Z,99454.66
2022-10-15T13:08:23.964Z,99456.47
2022-10-15T13:10:53.260Z,99456.47
2022-10-15T13:13:22.360Z,99452.13
2022-10-15T13:15:58.101Z,99453.09
2022-10-15T13:18:25.830Z,99446.91
2022-10-15T13:20:56.056Z,99429.25
2022-10-15T13:23:31.429Z,99374.13
2022-10-15T13:26:12.912Z,99445.09
2022-10-15T13:28:42.663Z,99412.31
2022-10-15T13:31:16.257Z,99413.75
2022-10-15T13:33:45.211Z,99448.03
2022-10-15T13:36:17.863Z,99383.31
2022-10-15T13:38:47.306Z,99442.69
2022-10-15T13:41:14.852Z,99449.97
2022-10-15T13:43:51.965Z,99417.44
2022-10-15T13:46:20.745Z,99462.56
2022-10-15T13:48:48.183Z,99457.25
2022-10-15T13:51:15.638Z,99434.47
2022-10-15T13:53:43.120Z,99448.53
2022-10-15T13:56:20.342Z,99448.53
2022-10-15T13:58:47.839Z,99414.16
2022-10-15T14:01:16.648Z,99442.56
2022-10-15T14:03:49.695Z,99395.31
2022-10-15T14:06:18.338Z,99452.38
2022-10-15T14:08:45.900Z,99446.22
2022-10-15T14:11:13.639Z,99438.25
2022-10-15T14:13:44.781Z,99454.22
2022-10-15T14:16:14.638Z,99459.81
2022-10-15T14:18:48.075Z,99420.97
2022-10-15T14:21:21.003Z,99466.94
2022-10-15T14:23:48.680Z,99372.97
2022-10-15T14:26:16.858Z,99468.88
2022-10-15T14:28:44.363Z,99461.88
2022-10-15T14:31:23.225Z,99469.13
2022-10-15T14:33:51.371Z,99464.78
2022-10-15T14:36:27.930Z,99469.25
2022-10-15T14:38:55.491Z,99471.09
2022-10-15T14:41:30.262Z,99443.97
2022-10-15T14:44:01.769Z,99443.84
2022-10-15T14:46:34.117Z,99465.03
2022-10-15T14:49:02.144Z,99466.03
2022-10-15T14:51:30.900Z,99464.81
2022-10-15T14:53:58.359Z,99474.97
2022-10-15T14:56:29.234Z,99474.13
2022-10-15T14:58:56.975Z,99465.41
2022-10-15T15:01:24.526Z,99460.22
2022-10-15T15:03:54.695Z,99460.09
2022-10-15T15:06:22.123Z,99451.34
2022-10-15T15:08:50.898Z,99465.66
2022-10-15T15:11:20.545Z,99400.72
2022-10-15T15:13:49.597Z,99406.75
2022-10-15T15:16:17.753Z,99451.47
2022-10-15T15:18:46.475Z,99453.44
2022-10-15T15:21:15.239Z,99452.47
2022-10-15T15:23:42.694Z,99452.47
2022-10-15T15:26:11.452Z,99451.59
2022-10-15T15:28:40.061Z,99452.47
2022-10-15T15:31:08.512Z,99448.25
2022-10-15T15:33:35.943Z,99444.59
2022-10-15T15:36:05.070Z,99433.44
2022-10-15T15:38:32.586Z,99454.38
2022-10-15T15:41:02.680Z,99425.03
2022-10-15T15:43:31.527Z,99457.19
2022-10-15T15:45:58.984Z,99457.19
2022-10-15T15:48:26.414Z,99462.50
2022-10-15T15:50:53.879Z,99456.34
2022-10-15T15:53:21.321Z,99454.63
2022-10-15T15:55:48.834Z,99463.63
2022-10-15T15:58:16.264Z,99465.31
2022-10-15T16:00:45.049Z,99465.31
2022-10-15T16:03:13.008Z,99449.81
2022-10-15T16:05:40.728Z,99460.09
2022-10-15T16:08:08.600Z,99462.75
2022-10-15T16:10:36.100Z,99466.41
2022-10-15T16:13:03.598Z,99466.53
2022-10-15T16:15:31.039Z,99470.88
2022-10-15T16:17:59.799Z,99466.53
2022-10-15T16:20:27.263Z,99469.19
2022-10-15T16:22:54.865Z,99460.47
2022-10-15T16:25:24.148Z,99397.25
2022-10-15T16:27:56.565Z,99468.75
2022-10-15T16:30:23.821Z,99473.91
2022-10-15T16:32:51.282Z,99485.56
2022-10-15T16:35:20.056Z,99492.72
2022-10-15T16:37:47.864Z,99496.09
2022-10-15T16:40:15.829Z,99494.41
2022-10-15T16:42:43.318Z,99489.09
2022-10-15T16:45:11.478Z,99482.31
2022-10-15T16:47:38.942Z,99473.09
2022-10-15T16:50:07.562Z,99475.88
2022-10-15T16:52:36.377Z,99476.75
2022-10-15T16:55:03.850Z,99482.06
2022-10-15T16:57:31.293Z,99485.69
2022-10-15T16:59:58.830Z,99494.53
2022-10-15T17:02:26.507Z,99491.00
2022-10-15T17:04:54.221Z,99489.34
2022-10-15T17:07:21.712Z,99496.34
2022-10-15T17:12:23.341Z,99507.97
2022-10-15T17:14:52.314Z,99450.50
2022-10-15T17:17:19.860Z,99435.59
2022-10-15T17:19:47.290Z,99499.03
2022-10-15T17:22:14.786Z,99511.63
2022-10-15T17:24:42.230Z,99509.91
2022-10-15T17:27:10.994Z,99507.25
2022-10-15T17:29:38.521Z,99516.97
2022-10-15T17:32:06.030Z,99509.91
2022-10-15T17:34:34.198Z,99512.56
2022-10-15T17:37:01.984Z,99524.94
2022-10-15T17:39:29.449Z,99515.38
2022-10-15T17:41:56.933Z,99532.09
2022-10-15T17:44:25.670Z,99526.88
2022-10-15T17:46:53.855Z,99527.88
2022-10-15T17:49:21.308Z,99537.53
2022-10-15T17:51:48.771Z,99536.69
2022-10-15T17:54:16.730Z,99548.19
2022-10-15T17:56:44.230Z,99554.50
2022-10-15T17:59:12.329Z,99558.00
2022-10-15T18:01:59.232Z,99531.75
2022-10-15T18:04:28.107Z,99565.16
2022-10-15T18:06:55.655Z,99578.38
2022-10-15T18:09:23.096Z,99581.16
2022-10-15T18:11:50.601Z,99597.16
2022-10-15T18:14:18.385Z,99582.97
2022-10-15T18:16:47.210Z,99592.19
2022-10-15T18:19:14.661Z,99591.94
2022-10-15T18:21:46.886Z,99598.94
2022-10-15T18:24:19.859Z,99583.94
2022-10-15T18:26:47.375Z,99590.47
2022-10-15T18:29:14.821Z,99606.19
2022-10-15T18:31:42.298Z,99616.03
2022-10-15T18:34:11.205Z,99613.25
2022-10-15T18:36:41.420Z,99616.88
2022-10-15T18:39:08.871Z,99621.59
2022-10-15T18:41:38.064Z,99627.53
2022-10-15T18:44:06.487Z,99574.72
2022-10-15T18:46:34.388Z,99616.03
2022-10-15T18:49:01.881Z,99612.50
2022-10-15T18:51:30.715Z,99618.69
2022-10-15T18:53:59.374Z,99626.69
2022-10-15T18:56:26.845Z,99642.69
2022-10-15T18:58:54.705Z,99629.72
2022-10-15T19:01:26.576Z,99569.47
2022-10-15T19:03:54.092Z,99645.34
2022-10-15T19:06:21.634Z,99649.94
2022-10-15T19:08:50.521Z,99648.97
2022-10-15T19:11:19.206Z,99656.94
2022-10-15T19:13:46.722Z,99614.63
2022-10-15T19:16:14.187Z,99680.09
2022-10-15T19:18:41.635Z,99688.09
2022-10-15T19:21:09.103Z,99678.38
2022-10-15T19:23:36.830Z,99675.97
2022-10-15T19:26:08.826Z,99684.81
2022-10-15T19:28:36.393Z,99689.28
2022-10-15T19:31:05.760Z,99690.72
2022-10-15T19:33:33.279Z,99698.88
2022-10-15T19:36:00.914Z,99711.56
2022-10-15T19:38:28.573Z,99703.59
2022-10-15T19:40:56.019Z,99714.88
2022-10-15T19:43:24.841Z,99715.69
2022-10-15T19:45:52.294Z,99713.03
2022-10-15T19:48:22.791Z,99712.19
2022-10-15T19:50:50.285Z,99715.69
2022-10-15T19:53:18.256Z,99634.28
2022-10-15T19:55:47.144Z,99678.94
2022-10-15T19:58:14.564Z,99710.00
2022-10-15T20:00:46.801Z,99714.13
2022-10-15T20:03:14.242Z,99716.78
2022-10-15T20:05:43.551Z,99722.13
2022-10-15T20:08:11.224Z,99725.63
2022-10-15T20:10:40.366Z,99734.47
2022-10-15T20:13:07.840Z,99738.09
2022-10-15T20:15:35.319Z,99726.56
2022-10-15T20:18:04.162Z,99763.06
2022-10-15T20:20:31.624Z,99755.28
2022-10-15T20:22:59.083Z,99766.53
2022-10-15T20:25:26.558Z,99767.41
2022-10-15T20:27:54.479Z,99702.03
2022-10-15T20:30:21.943Z,99776.38
2022-10-15T20:32:49.419Z,99774.06
2022-10-15T20:35:20.159Z,99788.84
2022-10-15T20:37:47.641Z,99788.84
2022-10-15T20:40:15.592Z,99787.97
2022-10-15T20:42:43.049Z,99772.91
2022-10-15T20:45:14.211Z,99791.63
2022-10-15T20:47:43.468Z,99707.81
2022-10-15T20:50:12.434Z,99810.28
2022-10-15T20:52:41.294Z,99799.63
2022-10-15T20:55:09.580Z,99797.94
2022-10-15T20:57:37.163Z,99789.88
2022-10-15T21:00:05.539Z,99818.38
2022-10-15T21:02:33.046Z,99817.53
2022-10-15T21:05:00.510Z,99819.34
2022-10-15T21:07:27.996Z,99797.97
2022-10-15T21:09:58.534Z,99814.13
2022-10-15T21:12:26.336Z,99823.06
2022-10-15T21:14:54.137Z,99821.16
2022-10-15T21:17:21.583Z,99828.41
2022-10-15T21:19:51.952Z,99832.91
2022-10-15T21:22:20.387Z,99838.22
2022-10-15T21:24:47.968Z,99847.06
2022-10-15T21:27:16.758Z,99852.38
2022-10-15T21:29:45.398Z,99847.16
2022-10-15T21:32:12.813Z,99844.00
2022-10-15T21:37:12.630Z,99857.94
2022-10-15T21:39:40.077Z,99846.44
2022-10-15T21:42:07.526Z,99853.59
2022-10-15T21:44:36.326Z,99872.22
2022-10-15T21:47:05.042Z,99875.88
2022-10-15T21:49:32.486Z,99882.03
2022-10-15T21:51:59.927Z,99897.19
2022-10-15T21:54:27.487Z,99897.19
2022-10-15T21:56:54.953Z,99891.09
2022-10-15T21:59:22.451Z,99885.78
2022-10-15T22:01:51.294Z,99894.75
2022-10-15T22:04:18.792Z,99896.53
2022-10-15T22:06:46.264Z,99893.88
2022-10-15T22:09:13.707Z,99902.84
2022-10-15T22:11:41.606Z,99828.81
2022-10-15T22:14:10.735Z,99892.19
2022-10-15T22:16:38.798Z,99910.94
2022-10-15T22:19:08.523Z,99864.13
2022-10-15T22:21:36.777Z,99917.22
2022-10-15T22:24:05.293Z,99904.75
2022-10-15T22:26:34.209Z,99874.00
2022-10-15T22:29:02.720Z,99925.31
2022-10-15T22:31:30.318Z,99927.16
2022-10-15T22:33:58.795Z,99916.72
2022-10-15T22:36:28.469Z,99923.72
2022-10-15T22:38:56.769Z,99870.00
2022-10-15T22:41:24.340Z,99888.72
2022-10-15T22:43:52.198Z,99919.50
2022-10-15T22:46:19.662Z,99901.91
2022-10-15T22:48:49.234Z,99852.00
2022-10-15T22:51:16.728Z,99903.63
2022-10-15T22:53:45.510Z,99919.59
2022-10-15T22:56:13.608Z,99878.50
2022-10-15T22:58:41.081Z,99915.22
2022-10-15T23:01:10.131Z,99910.75
2022-10-15T23:03:37.815Z,99844.13
2022-10-15T23:06:05.639Z,99901.19
2022-10-15T23:08:33.328Z,99777.59
2022-10-15T23:11:09.416Z,99907.44
2022-10-15T23:13:37.541Z,99900.31
2022-10-15T23:16:09.818Z,99869.25
2022-10-15T23:18:37.268Z,99909.38
2022-10-15T23:21:06.152Z,99915.53
2022-10-15T23:23:33.614Z,99918.44
2022-10-15T23:26:01.125Z,99875.75
2022-10-15T23:28:30.045Z,99916.63
2022-10-15T23:30:57.531Z,99910.44
2022-10-15T23:33:25.077Z,99873.53
2022-10-15T23:35:59.845Z,99913.97
2022-10-15T23:38:28.019Z,99934.41
2022-10-15T23:41:00.503Z,99928.25
2022-10-15T23:43:27.949Z,99925.69
2022-10-15T23:45:56.770Z,99933.56
2022-10-15T23:48:24.300Z,99929.19
2022-10-15T23:50:52.227Z,99931.84
2022-10-15T23:53:19.751Z,99897.16
2022-10-15T23:55:47.340Z,99889.72
2022-10-15T23:58:14.838Z,99913.34
